Time;durP1;ratioP1;P1;durP2;ratioP2;P2;SDS_P1;SDS_P2;PMS_P1;PMS_P2;Temp;Humidity;BMP_temperature;BMP_pressure;BME280_temperature;BME280_humidity;BME280_pressure;Samples;Min_cycle;Max_cycle;Signal;HPM_P1;HPM_P2
2022/06/24 00:00:48;;;;;;;;;;;26.30;76.80;;;;;;6340881;22;19905;-79
2022/06/24 00:03:17;;;;;;;;;;;26.10;77.60;;;;;;6339883;22;20374;-79
2022/06/24 00:05:42;;;;;;;;;;;26.10;78.00;;;;;;6339504;22;20334;-80
2022/06/24 00:08:08;;;;;;;;;;;26.20;77.90;;;;;;6340418;22;19982;-79
2022/06/24 00:10:34;;;;;;;;;;;26.20;77.60;;;;;;6339989;22;19902;-80
2022/06/24 00:13:00;;;;;;;;;;;26.30;77.30;;;;;;6340306;22;19943;-80
2022/06/24 00:15:30;;;;;;;;;;;26.30;77.30;;;;;;6340001;22;19902;-81
2022/06/24 00:17:56;;;;;;;;;;;26.30;77.40;;;;;;6340340;22;19947;-79
2022/06/24 00:20:22;;;;;;;;;;;26.30;77.50;;;;;;6339920;22;19989;-80
2022/06/24 00:22:49;;;;;;;;;;;26.30;77.30;;;;;;6339978;22;19899;-80
2022/06/24 00:25:15;;;;;;;;;;;26.40;77.30;;;;;;6339995;22;20288;-81
2022/06/24 00:27:42;;;;;;;;;;;26.40;77.30;;;;;;6339784;22;20300;-81
2022/06/24 00:30:08;;;;;;;;;;;26.40;77.10;;;;;;6340132;22;19898;-81
2022/06/24 00:32:33;;;;;;;;;;;26.30;77.60;;;;;;6312163;22;19961;-81
2022/06/24 00:35:02;;;;;;;;;;;26.30;77.50;;;;;;6339827;22;19922;-79
2022/06/24 00:37:29;;;;;;;;;;;26.20;78.20;;;;;;6340301;22;19898;-79
2022/06/24 00:40:17;;;;;;;;;;;26.30;78.00;;;;;;6340064;22;19906;-82
2022/06/24 00:42:44;;;;;;;;;;;26.30;77.90;;;;;;6338823;22;20201;-79
2022/06/24 00:45:15;;;;;;;;;;;26.30;78.40;;;;;;6339777;22;19936;-78
2022/06/24 00:47:42;;;;;;;;;;;26.30;77.70;;;;;;6340016;22;19899;-82
2022/06/24 00:50:19;;;;;;;;;;;26.30;78.00;;;;;;6312328;22;19899;-79
2022/06/24 00:52:46;;;;;;;;;;;26.20;78.20;;;;;;6339895;22;19903;-79
2022/06/24 00:55:16;;;;;;;;;;;26.20;77.60;;;;;;6339537;22;19907;-78
2022/06/24 00:57:41;;;;;;;;;;;26.20;77.60;;;;;;6339034;22;19906;-78
2022/06/24 01:00:11;;;;;;;;;;;26.20;78.00;;;;;;6339244;22;19930;-80
2022/06/24 01:02:37;;;;;;;;;;;26.20;77.80;;;;;;6339793;22;19985;-78
2022/06/24 01:05:06;;;;;;;;;;;26.20;77.60;;;;;;6339947;22;19938;-80
2022/06/24 01:07:35;;;;;;;;;;;26.20;77.60;;;;;;6339739;22;19905;-81
2022/06/24 01:10:01;;;;;;;;;;;26.30;77.60;;;;;;6339711;22;19898;-80
2022/06/24 01:12:26;;;;;;;;;;;26.30;77.50;;;;;;6340110;22;20343;-79
2022/06/24 01:14:52;;;;;;;;;;;26.30;77.90;;;;;;6312274;22;19899;-77
2022/06/24 01:17:17;;;;;;;;;;;26.30;77.60;;;;;;6312129;22;20289;-80
2022/06/24 01:19:43;;;;;;;;;;;26.30;77.80;;;;;;6339147;22;20289;-81
2022/06/24 01:22:09;;;;;;;;;;;26.30;77.80;;;;;;6340060;22;20328;-81
2022/06/24 01:24:34;;;;;;;;;;;26.30;77.70;;;;;;6340273;22;20339;-81
2022/06/24 01:27:00;;;;;;;;;;;26.30;77.90;;;;;;6339619;22;19898;-81
2022/06/24 01:29:25;;;;;;;;;;;26.20;78.10;;;;;;6312068;22;19899;-81
2022/06/24 01:31:53;;;;;;;;;;;26.20;78.00;;;;;;6312037;22;19898;-82
2022/06/24 01:34:19;;;;;;;;;;;26.10;78.20;;;;;;6339410;22;19898;-82
2022/06/24 01:36:45;;;;;;;;;;;26.10;78.50;;;;;;6339625;22;19902;-81
2022/06/24 01:39:10;;;;;;;;;;;26.10;78.10;;;;;;6339373;22;19993;-80
2022/06/24 01:41:37;;;;;;;;;;;26.10;78.40;;;;;;6339248;22;19917;-79
2022/06/24 01:44:03;;;;;;;;;;;26.10;78.10;;;;;;6339177;22;19914;-79
2022/06/24 01:46:29;;;;;;;;;;;26.10;78.40;;;;;;6339459;22;19977;-77
2022/06/24 01:48:55;;;;;;;;;;;26.10;78.60;;;;;;6339555;22;19902;-77
2022/06/24 01:51:21;;;;;;;;;;;26.10;78.30;;;;;;6339411;22;19948;-77
2022/06/24 01:53:47;;;;;;;;;;;26.00;78.90;;;;;;6339720;22;20309;-77
2022/06/24 01:56:12;;;;;;;;;;;25.90;78.90;;;;;;6339624;22;19899;-77
2022/06/24 01:58:38;;;;;;;;;;;25.90;79.20;;;;;;6339299;22;19944;-77
2022/06/24 02:01:03;;;;;;;;;;;25.80;79.00;;;;;;6339471;22;19963;-78
2022/06/24 02:03:31;;;;;;;;;;;25.70;79.80;;;;;;6339488;22;19922;-78
2022/06/24 02:06:00;;;;;;;;;;;25.70;79.90;;;;;;6339167;22;19906;-77
2022/06/24 02:08:25;;;;;;;;;;;25.70;79.70;;;;;;6339238;22;19903;-79
2022/06/24 02:13:35;;;;;;;;;;;25.80;79.70;;;;;;6339215;22;20255;-78
2022/06/24 02:16:02;;;;;;;;;;;25.70;79.90;;;;;;6339384;22;19899;-78
2022/06/24 02:18:28;;;;;;;;;;;25.80;79.80;;;;;;6338735;22;19898;-79
2022/06/24 02:20:54;;;;;;;;;;;25.80;79.50;;;;;;6310725;22;19928;-79
2022/06/24 02:23:19;;;;;;;;;;;25.80;79.40;;;;;;6339683;22;20407;-79
2022/06/24 02:25:46;;;;;;;;;;;25.70;80.40;;;;;;6339558;22;19987;-79
2022/06/24 02:28:12;;;;;;;;;;;25.70;79.90;;;;;;6311474;22;19903;-80
2022/06/24 02:30:38;;;;;;;;;;;25.70;79.70;;;;;;6338998;22;19944;-79
2022/06/24 02:33:04;;;;;;;;;;;25.80;80.30;;;;;;6339191;22;19967;-78
2022/06/24 02:35:30;;;;;;;;;;;25.70;80.00;;;;;;6338770;22;19913;-79
2022/06/24 02:37:56;;;;;;;;;;;25.70;80.40;;;;;;6339413;22;19898;-80
2022/06/24 02:43:10;;;;;;;;;;;25.70;79.90;;;;;;6339675;22;19905;-80
2022/06/24 02:45:36;;;;;;;;;;;25.70;80.60;;;;;;6340065;22;19946;-80
2022/06/24 02:48:01;;;;;;;;;;;25.70;80.40;;;;;;6341205;22;19905;-80
2022/06/24 02:50:27;;;;;;;;;;;25.60;81.00;;;;;;6313785;22;19903;-79
2022/06/24 02:52:52;;;;;;;;;;;25.60;80.70;;;;;;6341126;22;20328;-81
2022/06/24 02:55:18;;;;;;;;;;;25.60;80.70;;;;;;6341045;22;19981;-81
2022/06/24 02:57:43;;;;;;;;;;;25.60;81.00;;;;;;6341020;22;19930;-82
2022/06/24 03:00:09;;;;;;;;;;;25.60;81.60;;;;;;6340587;22;19902;-81
2022/06/24 03:02:35;;;;;;;;;;;25.50;81.40;;;;;;6313294;22;19907;-80
2022/06/24 03:05:00;;;;;;;;;;;25.50;81.30;;;;;;6341267;22;20255;-81
2022/06/24 03:07:26;;;;;;;;;;;25.50;81.90;;;;;;6313788;22;20369;-77
2022/06/24 03:09:51;;;;;;;;;;;25.50;81.70;;;;;;6340821;22;20223;-79
2022/06/24 03:12:17;;;;;;;;;;;25.50;81.70;;;;;;6340820;22;19905;-81
2022/06/24 03:14:42;;;;;;;;;;;25.50;81.70;;;;;;6340888;22;19899;-81
2022/06/24 03:17:08;;;;;;;;;;;25.60;81.50;;;;;;6313080;22;19998;-80
2022/06/24 03:19:33;;;;;;;;;;;25.60;81.70;;;;;;6340273;22;20312;-78
2022/06/24 03:21:59;;;;;;;;;;;25.60;81.70;;;;;;6339320;22;19899;-77
2022/06/24 03:24:24;;;;;;;;;;;25.50;81.60;;;;;;6339525;22;19968;-76
2022/06/24 03:26:50;;;;;;;;;;;25.60;81.40;;;;;;6312530;22;19973;-77
2022/06/24 03:29:15;;;;;;;;;;;25.60;81.80;;;;;;6340511;22;19898;-77
2022/06/24 03:31:41;;;;;;;;;;;25.60;81.80;;;;;;6340139;22;19902;-77
2022/06/24 03:34:06;;;;;;;;;;;25.60;81.70;;;;;;6340050;22;20301;-77
2022/06/24 03:36:32;;;;;;;;;;;25.60;81.60;;;;;;6340647;22;19903;-80
2022/06/24 03:38:57;;;;;;;;;;;25.60;81.60;;;;;;6339840;22;19906;-81
2022/06/24 03:41:23;;;;;;;;;;;25.60;81.50;;;;;;6340109;22;19926;-79
2022/06/24 03:43:48;;;;;;;;;;;25.60;82.30;;;;;;6339924;22;19907;-79
2022/06/24 03:46:14;;;;;;;;;;;25.50;81.90;;;;;;6340268;22;19902;-80
2022/06/24 03:48:39;;;;;;;;;;;25.50;81.80;;;;;;6340482;22;19899;-77
2022/06/24 03:51:05;;;;;;;;;;;25.60;81.90;;;;;;6340297;22;19898;-77
2022/06/24 03:53:31;;;;;;;;;;;25.60;82.00;;;;;;6340108;22;19899;-77
2022/06/24 03:55:57;;;;;;;;;;;25.50;82.70;;;;;;6339934;22;19898;-76
2022/06/24 03:58:22;;;;;;;;;;;25.50;82.20;;;;;;6339976;22;19925;-77
2022/06/24 04:00:48;;;;;;;;;;;25.50;82.10;;;;;;6340149;22;19906;-77
2022/06/24 04:03:14;;;;;;;;;;;25.50;82.60;;;;;;6340159;22;19930;-78
2022/06/24 04:05:39;;;;;;;;;;;25.60;82.10;;;;;;6312516;22;19898;-78
2022/06/24 04:08:05;;;;;;;;;;;25.50;82.50;;;;;;6340165;22;19906;-78
2022/06/24 04:10:30;;;;;;;;;;;25.50;82.40;;;;;;6312261;22;19898;-78
2022/06/24 04:12:56;;;;;;;;;;;25.50;82.20;;;;;;6340288;22;19899;-77
2022/06/24 04:15:21;;;;;;;;;;;25.60;82.40;;;;;;6340327;22;19948;-77
2022/06/24 04:17:47;;;;;;;;;;;25.60;82.30;;;;;;6340322;22;19989;-77
2022/06/24 04:20:14;;;;;;;;;;;25.60;82.60;;;;;;6340441;22;19902;-77
2022/06/24 04:22:40;;;;;;;;;;;25.60;82.30;;;;;;6312271;22;19902;-79
2022/06/24 04:25:06;;;;;;;;;;;25.50;83.00;;;;;;6340526;22;19930;-79
2022/06/24 04:27:31;;;;;;;;;;;25.30;83.80;;;;;;6340031;22;19914;-79
2022/06/24 04:30:00;;;;;;;;;;;25.30;83.70;;;;;;6340095;22;19923;-79
2022/06/24 04:32:26;;;;;;;;;;;25.30;84.00;;;;;;6340057;22;19930;-77
2022/06/24 04:34:51;;;;;;;;;;;25.30;84.20;;;;;;6339241;22;20205;-77
2022/06/24 04:37:17;;;;;;;;;;;25.20;84.40;;;;;;6339920;22;19902;-77
2022/06/24 04:39:44;;;;;;;;;;;25.30;84.20;;;;;;6340414;22;19952;-77
2022/06/24 04:42:10;;;;;;;;;;;25.30;84.10;;;;;;6312422;22;19974;-77
2022/06/24 04:44:36;;;;;;;;;;;25.40;84.00;;;;;;6339528;22;19934;-77
2022/06/24 04:47:01;;;;;;;;;;;25.40;83.70;;;;;;6311839;22;19952;-76
2022/06/24 04:49:27;;;;;;;;;;;25.50;83.70;;;;;;6339808;22;19935;-77
2022/06/24 04:51:53;;;;;;;;;;;25.50;83.80;;;;;;6339986;22;19952;-77
2022/06/24 04:54:18;;;;;;;;;;;25.60;83.70;;;;;;6339968;22;19899;-77
2022/06/24 04:56:44;;;;;;;;;;;25.60;83.60;;;;;;6339813;22;20294;-76
2022/06/24 04:59:09;;;;;;;;;;;25.70;83.50;;;;;;6339585;22;20297;-78
2022/06/24 05:01:35;;;;;;;;;;;25.70;84.10;;;;;;6339959;22;20288;-77
2022/06/24 05:04:01;;;;;;;;;;;25.70;83.50;;;;;;6339755;22;20259;-77
2022/06/24 05:06:26;;;;;;;;;;;25.70;83.70;;;;;;6340048;22;20315;-78
2022/06/24 05:08:52;;;;;;;;;;;25.80;83.70;;;;;;6312229;22;19981;-78
2022/06/24 05:11:17;;;;;;;;;;;25.80;83.50;;;;;;6339917;22;19959;-78
2022/06/24 05:13:43;;;;;;;;;;;25.80;83.90;;;;;;6339929;22;20289;-77
2022/06/24 05:16:08;;;;;;;;;;;25.80;83.50;;;;;;6339584;22;19977;-77
2022/06/24 05:18:34;;;;;;;;;;;25.80;83.60;;;;;;6311897;22;19926;-78
2022/06/24 05:20:59;;;;;;;;;;;25.50;84.60;;;;;;6311476;22;19899;-78
2022/06/24 05:23:25;;;;;;;;;;;25.50;84.70;;;;;;6339689;22;19913;-78
2022/06/24 05:25:50;;;;;;;;;;;25.60;84.50;;;;;;6339497;22;19899;-77
2022/06/24 05:28:16;;;;;;;;;;;25.60;84.60;;;;;;6339184;22;19899;-77
2022/06/24 05:30:41;;;;;;;;;;;25.50;84.80;;;;;;6339023;22;19902;-79
2022/06/24 05:33:07;;;;;;;;;;;25.50;84.70;;;;;;6311313;22;19971;-79
2022/06/24 05:35:33;;;;;;;;;;;25.50;85.10;;;;;;6311035;22;20396;-78
2022/06/24 05:37:59;;;;;;;;;;;25.40;85.40;;;;;;6339270;22;19899;-78
2022/06/24 05:40:24;;;;;;;;;;;25.50;85.20;;;;;;6311778;22;19903;-78
2022/06/24 05:42:50;;;;;;;;;;;25.50;85.10;;;;;;6339235;22;19898;-80
2022/06/24 05:45:15;;;;;;;;;;;25.30;86.00;;;;;;6338164;22;19910;-80
2022/06/24 05:47:41;;;;;;;;;;;25.40;85.60;;;;;;6338711;22;20232;-80
2022/06/24 05:50:07;;;;;;;;;;;25.50;85.70;;;;;;6338439;22;19899;-76
2022/06/24 05:55:16;;;;;;;;;;;25.50;85.20;;;;;;6337482;22;19985;-74
2022/06/24 05:57:42;;;;;;;;;;;25.60;84.80;;;;;;6335761;22;19946;-75
2022/06/24 06:00:08;;;;;;;;;;;25.60;84.70;;;;;;6315527;22;20291;-75
2022/06/24 06:02:34;;;;;;;;;;;25.60;84.80;;;;;;6309028;22;19970;-76
2022/06/24 06:04:59;;;;;;;;;;;25.50;84.90;;;;;;6336323;22;19899;-76
2022/06/24 06:07:25;;;;;;;;;;;25.60;85.00;;;;;;6337105;22;19898;-75
2022/06/24 06:09:50;;;;;;;;;;;25.60;84.80;;;;;;6336642;22;19906;-75
2022/06/24 06:12:16;;;;;;;;;;;25.50;85.00;;;;;;6337490;22;19905;-75
2022/06/24 06:14:41;;;;;;;;;;;25.50;85.50;;;;;;6337784;22;19903;-75
2022/06/24 06:17:07;;;;;;;;;;;25.60;85.40;;;;;;6338160;22;20266;-75
2022/06/24 06:19:34;;;;;;;;;;;25.70;84.90;;;;;;6336987;22;19907;-76
2022/06/24 06:22:00;;;;;;;;;;;25.80;84.30;;;;;;6310408;22;20288;-79
2022/06/24 06:24:26;;;;;;;;;;;25.90;84.50;;;;;;6338042;22;19899;-78
2022/06/24 06:26:51;;;;;;;;;;;25.80;85.10;;;;;;6338268;22;19906;-79
2022/06/24 06:29:17;;;;;;;;;;;25.90;84.80;;;;;;6337477;22;19909;-78
2022/06/24 06:31:42;;;;;;;;;;;26.00;84.60;;;;;;6336437;22;19926;-79
2022/06/24 06:34:08;;;;;;;;;;;26.10;84.20;;;;;;6310163;22;19899;-79
2022/06/24 06:36:34;;;;;;;;;;;26.20;83.90;;;;;;6337723;22;19982;-79
2022/06/24 06:39:00;;;;;;;;;;;26.30;84.00;;;;;;6337781;22;19925;-80
2022/06/24 06:41:25;;;;;;;;;;;26.40;83.00;;;;;;6308845;22;19903;-80
2022/06/24 06:43:51;;;;;;;;;;;26.40;82.90;;;;;;6338503;22;19916;-79
2022/06/24 06:46:16;;;;;;;;;;;26.50;82.40;;;;;;6337052;22;20017;-79
2022/06/24 06:48:42;;;;;;;;;;;26.50;82.20;;;;;;6338335;22;19909;-79
2022/06/24 06:51:08;;;;;;;;;;;26.40;81.50;;;;;;6337796;22;19968;-80
2022/06/24 06:53:44;;;;;;;;;;;26.40;81.90;;;;;;6308937;22;19906;-80
2022/06/24 06:56:12;;;;;;;;;;;26.50;81.90;;;;;;6310355;22;19984;-79
2022/06/24 06:58:37;;;;;;;;;;;26.60;81.70;;;;;;6338157;22;19934;-79
2022/06/24 07:01:03;;;;;;;;;;;26.70;81.20;;;;;;6310084;22;20017;-77
2022/06/24 07:03:29;;;;;;;;;;;26.70;81.40;;;;;;6310615;22;19902;-79
2022/06/24 07:05:54;;;;;;;;;;;26.80;80.20;;;;;;6337679;22;19917;-78
2022/06/24 07:08:20;;;;;;;;;;;26.80;80.10;;;;;;6338786;22;19969;-79
2022/06/24 07:10:46;;;;;;;;;;;26.80;79.60;;;;;;6310988;22;19899;-79
2022/06/24 07:13:11;;;;;;;;;;;26.80;79.60;;;;;;6338663;22;19933;-79
2022/06/24 07:15:38;;;;;;;;;;;26.80;79.50;;;;;;6338643;22;19899;-78
2022/06/24 07:18:04;;;;;;;;;;;26.70;79.40;;;;;;6338381;22;20242;-78
2022/06/24 07:20:30;;;;;;;;;;;26.60;79.70;;;;;;6337731;22;19910;-79
2022/06/24 07:22:56;;;;;;;;;;;26.80;79.90;;;;;;6338110;22;19898;-80
2022/06/24 07:25:21;;;;;;;;;;;26.90;79.90;;;;;;6338426;22;19925;-79
2022/06/24 07:27:47;;;;;;;;;;;26.90;79.00;;;;;;6338551;22;19903;-78
2022/06/24 07:30:12;;;;;;;;;;;26.90;79.00;;;;;;6337854;22;19899;-78
2022/06/24 07:32:38;;;;;;;;;;;26.90;78.90;;;;;;6311150;22;19909;-78
2022/06/24 07:35:04;;;;;;;;;;;27.00;78.70;;;;;;6339675;22;19898;-80
2022/06/24 07:37:29;;;;;;;;;;;27.10;78.70;;;;;;6313006;22;20324;-81
2022/06/24 07:39:55;;;;;;;;;;;26.90;77.70;;;;;;6312212;22;19960;-79
2022/06/24 07:42:20;;;;;;;;;;;27.00;78.00;;;;;;6339690;22;19977;-79
2022/06/24 07:44:47;;;;;;;;;;;27.10;77.20;;;;;;6340232;22;19933;-79
2022/06/24 07:47:13;;;;;;;;;;;27.20;77.30;;;;;;6311506;22;19932;-80
2022/06/24 07:49:38;;;;;;;;;;;27.30;76.40;;;;;;6340229;22;19899;-79
2022/06/24 07:52:04;;;;;;;;;;;27.30;76.90;;;;;;6339898;22;19916;-80
2022/06/24 07:54:31;;;;;;;;;;;27.40;75.90;;;;;;6338491;22;19906;-79
2022/06/24 07:56:56;;;;;;;;;;;27.50;75.40;;;;;;6339081;22;20308;-79
2022/06/24 07:59:34;;;;;;;;;;;27.50;74.60;;;;;;6339119;22;19902;-79
2022/06/24 08:02:00;;;;;;;;;;;27.50;75.00;;;;;;6338730;22;19917;-79
2022/06/24 08:04:28;;;;;;;;;;;27.50;75.20;;;;;;6312513;22;19929;-78
2022/06/24 08:06:54;;;;;;;;;;;27.60;75.40;;;;;;6339544;22;19898;-79
2022/06/24 08:09:36;;;;;;;;;;;27.70;75.20;;;;;;6339893;22;19906;-78
2022/06/24 08:12:03;;;;;;;;;;;27.70;73.90;;;;;;6310471;22;19956;-79
2022/06/24 08:14:28;;;;;;;;;;;27.70;74.40;;;;;;6338883;22;19898;-78
2022/06/24 08:16:55;;;;;;;;;;;27.80;73.30;;;;;;6338328;22;20288;-79
2022/06/24 08:19:21;;;;;;;;;;;27.80;73.80;;;;;;6338977;22;19902;-78
2022/06/24 08:21:46;;;;;;;;;;;27.90;73.40;;;;;;6339160;22;19959;-79
2022/06/24 08:24:13;;;;;;;;;;;28.00;71.80;;;;;;6339050;22;19949;-78
2022/06/24 08:26:39;;;;;;;;;;;28.00;70.60;;;;;;6335813;22;19899;-78
2022/06/24 08:29:04;;;;;;;;;;;28.10;71.50;;;;;;6338607;22;20201;-78
2022/06/24 08:31:30;;;;;;;;;;;28.10;70.80;;;;;;6339339;22;19899;-79
2022/06/24 08:33:55;;;;;;;;;;;28.20;72.40;;;;;;6338528;22;19899;-78
2022/06/24 08:36:29;;;;;;;;;;;28.20;71.10;;;;;;6339267;22;19937;-75
2022/06/24 08:38:56;;;;;;;;;;;28.20;71.30;;;;;;6310374;22;20277;-77
2022/06/24 08:41:23;;;;;;;;;;;28.30;71.60;;;;;;6339229;22;19981;-76
2022/06/24 08:44:01;;;;;;;;;;;28.50;70.90;;;;;;6339020;22;19910;-79
2022/06/24 08:46:28;;;;;;;;;;;28.50;71.10;;;;;;6311785;22;19997;-78
2022/06/24 08:48:58;;;;;;;;;;;28.60;71.50;;;;;;6311919;22;19983;-81
2022/06/24 08:51:24;;;;;;;;;;;28.70;69.30;;;;;;6339190;22;19899;-80
2022/06/24 08:53:51;;;;;;;;;;;28.70;67.50;;;;;;6339303;22;19899;-80
2022/06/24 08:56:17;;;;;;;;;;;28.70;67.30;;;;;;6339087;22;19982;-81
2022/06/24 08:58:42;;;;;;;;;;;28.60;65.70;;;;;;6338135;22;19930;-81
2022/06/24 09:01:12;;;;;;;;;;;28.60;67.60;;;;;;6339343;22;19905;-81
2022/06/24 09:03:37;;;;;;;;;;;28.60;66.90;;;;;;6338661;22;20202;-80
2022/06/24 09:06:09;;;;;;;;;;;28.60;68.20;;;;;;6339026;22;19910;-81
2022/06/24 09:08:35;;;;;;;;;;;28.80;69.00;;;;;;6310951;22;20266;-81
2022/06/24 09:11:08;;;;;;;;;;;28.90;68.70;;;;;;6338697;22;19948;-81
2022/06/24 09:13:44;;;;;;;;;;;29.10;68.10;;;;;;6339390;22;20274;-81
2022/06/24 09:16:10;;;;;;;;;;;29.20;65.60;;;;;;6338165;22;19898;-82
2022/06/24 09:18:35;;;;;;;;;;;29.30;64.60;;;;;;6338893;22;19938;-80
2022/06/24 09:21:01;;;;;;;;;;;29.40;65.30;;;;;;6338856;22;19902;-80
2022/06/24 09:23:26;;;;;;;;;;;29.40;64.30;;;;;;6338141;22;19903;-80
2022/06/24 09:26:03;;;;;;;;;;;29.50;63.60;;;;;;6310918;22;19905;-81
2022/06/24 09:28:30;;;;;;;;;;;29.60;64.40;;;;;;6311376;22;19898;-80
2022/06/24 09:31:00;;;;;;;;;;;29.70;63.60;;;;;;6339471;22;19905;-80
2022/06/24 09:33:26;;;;;;;;;;;29.70;63.00;;;;;;6338059;22;19906;-80
2022/06/24 09:35:58;;;;;;;;;;;29.90;62.20;;;;;;6338673;22;19899;-80
2022/06/24 09:38:25;;;;;;;;;;;30.00;63.90;;;;;;6339194;22;19905;-81
2022/06/24 09:40:58;;;;;;;;;;;30.10;63.30;;;;;;6338977;22;19945;-80
2022/06/24 09:43:27;;;;;;;;;;;30.20;61.20;;;;;;6338354;22;20007;-80
2022/06/24 09:45:53;;;;;;;;;;;30.30;60.40;;;;;;6338093;22;19911;-81
2022/06/24 09:48:27;;;;;;;;;;;30.30;61.30;;;;;;6339289;22;19898;-80
2022/06/24 09:50:57;;;;;;;;;;;30.20;58.50;;;;;;6311638;22;19898;-80
2022/06/24 09:53:23;;;;;;;;;;;30.20;60.20;;;;;;6338833;22;19909;-80
2022/06/24 09:55:53;;;;;;;;;;;30.30;58.00;;;;;;6338208;22;19981;-80
2022/06/24 09:58:19;;;;;;;;;;;30.30;59.20;;;;;;6310660;22;19898;-80
2022/06/24 10:00:46;;;;;;;;;;;30.40;60.20;;;;;;6337482;22;19902;-80
2022/06/24 10:03:13;;;;;;;;;;;30.50;59.80;;;;;;6338046;22;19899;-80
2022/06/24 10:05:40;;;;;;;;;;;30.50;59.70;;;;;;6338169;22;20688;-79
2022/06/24 10:08:09;;;;;;;;;;;30.50;60.00;;;;;;6338460;22;19903;-80
2022/06/24 10:10:35;;;;;;;;;;;30.40;58.80;;;;;;6338374;22;19910;-81
2022/06/24 10:13:05;;;;;;;;;;;30.40;58.80;;;;;;6338114;22;19906;-80
2022/06/24 10:15:31;;;;;;;;;;;30.40;60.50;;;;;;6338490;22;19906;-79
2022/06/24 10:17:57;;;;;;;;;;;30.50;59.70;;;;;;6338648;22;19898;-80
2022/06/24 10:20:23;;;;;;;;;;;30.60;59.80;;;;;;6338528;22;20312;-79
2022/06/24 10:22:54;;;;;;;;;;;30.70;58.30;;;;;;6338501;22;19902;-80
2022/06/24 10:25:39;;;;;;;;;;;30.90;60.30;;;;;;6337318;22;19898;-79
2022/06/24 10:28:05;;;;;;;;;;;31.10;59.00;;;;;;6336912;22;19903;-80
2022/06/24 10:30:55;;;;;;;;;;;31.20;58.80;;;;;;6336915;22;19898;-80
2022/06/24 10:33:21;;;;;;;;;;;31.30;56.10;;;;;;6325307;22;19898;-79
2022/06/24 10:36:15;;;;;;;;;;;31.50;55.50;;;;;;6336708;22;19906;-80
2022/06/24 10:38:49;;;;;;;;;;;31.50;54.80;;;;;;6332212;22;19952;-80
2022/06/24 10:41:15;;;;;;;;;;;31.60;56.00;;;;;;6310206;22;20309;-80
2022/06/24 10:43:42;;;;;;;;;;;31.80;54.20;;;;;;6336094;22;19973;-80
2022/06/24 10:46:13;;;;;;;;;;;31.90;56.00;;;;;;6336715;22;19899;-80
2022/06/24 10:48:51;;;;;;;;;;;32.10;56.20;;;;;;6337581;22;19930;-77
2022/06/24 10:51:21;;;;;;;;;;;32.20;56.00;;;;;;6309815;22;19902;-81
2022/06/24 10:54:02;;;;;;;;;;;32.40;54.60;;;;;;6336040;22;20247;-79
2022/06/24 10:56:49;;;;;;;;;;;32.40;49.50;;;;;;6310018;22;20312;-79
2022/06/24 10:59:19;;;;;;;;;;;32.40;50.40;;;;;;6309741;22;20267;-79
2022/06/24 11:01:46;;;;;;;;;;;32.60;50.90;;;;;;6335943;22;19898;-79
2022/06/24 11:04:15;;;;;;;;;;;32.70;50.00;;;;;;6338089;22;19905;-80
2022/06/24 11:07:00;;;;;;;;;;;32.80;49.30;;;;;;6338427;22;19898;-80
2022/06/24 11:09:29;;;;;;;;;;;32.90;50.10;;;;;;6338304;22;19899;-80
2022/06/24 11:11:55;;;;;;;;;;;33.10;47.60;;;;;;6339288;22;20033;-80
2022/06/24 11:14:24;;;;;;;;;;;33.20;47.00;;;;;;6339850;22;19898;-80
2022/06/24 11:16:50;;;;;;;;;;;33.30;47.70;;;;;;6338543;22;20001;-79
2022/06/24 11:19:16;;;;;;;;;;;33.40;47.70;;;;;;6339330;22;19902;-80
2022/06/24 11:21:46;;;;;;;;;;;33.50;46.30;;;;;;6339218;22;19926;-80
2022/06/24 11:24:12;;;;;;;;;;;33.60;47.40;;;;;;6340368;22;19930;-79
2022/06/24 11:26:42;;;;;;;;;;;33.70;45.80;;;;;;6338543;22;19902;-80
2022/06/24 11:29:08;;;;;;;;;;;33.60;46.40;;;;;;6332535;22;19898;-80
2022/06/24 11:31:34;;;;;;;;;;;33.60;46.70;;;;;;6339206;22;19898;-80
2022/06/24 11:34:05;;;;;;;;;;;33.90;48.00;;;;;;6339603;22;19948;-80
2022/06/24 11:36:31;;;;;;;;;;;34.30;48.10;;;;;;6338537;22;19977;-80
2022/06/24 11:38:57;;;;;;;;;;;34.60;46.70;;;;;;6338585;22;20254;-80
2022/06/24 11:41:24;;;;;;;;;;;35.00;48.70;;;;;;6339265;22;19932;-81
2022/06/24 11:43:53;;;;;;;;;;;35.30;48.90;;;;;;6311473;22;20296;-80
2022/06/24 11:46:18;;;;;;;;;;;35.40;48.80;;;;;;6339998;22;19951;-81
2022/06/24 11:48:54;;;;;;;;;;;35.30;48.50;;;;;;6337839;22;20220;-80
2022/06/24 11:51:22;;;;;;;;;;;35.10;49.10;;;;;;6310102;22;19948;-80
2022/06/24 11:53:55;;;;;;;;;;;34.80;49.70;;;;;;6338372;22;19899;-80
2022/06/24 11:56:21;;;;;;;;;;;34.40;50.10;;;;;;6336704;22;19913;-80
2022/06/24 11:58:46;;;;;;;;;;;34.20;46.30;;;;;;6336823;22;19898;-81
2022/06/24 12:01:12;;;;;;;;;;;34.40;47.70;;;;;;6338797;22;19924;-80
2022/06/24 12:03:38;;;;;;;;;;;34.80;45.00;;;;;;6338288;22;19898;-79
2022/06/24 12:06:03;;;;;;;;;;;35.10;42.90;;;;;;6339667;22;19899;-81
2022/06/24 12:08:29;;;;;;;;;;;35.50;44.90;;;;;;6338539;22;19899;-81
2022/06/24 12:10:55;;;;;;;;;;;35.90;44.60;;;;;;6339498;22;19898;-81
2022/06/24 12:13:24;;;;;;;;;;;36.20;40.30;;;;;;6340190;22;19899;-80
2022/06/24 12:15:52;;;;;;;;;;;36.20;40.50;;;;;;6339559;22;19902;-80
2022/06/24 12:18:28;;;;;;;;;;;36.50;38.20;;;;;;6339867;22;19899;-79
2022/06/24 12:21:04;;;;;;;;;;;36.50;38.30;;;;;;6312723;22;20279;-79
2022/06/24 12:23:31;;;;;;;;;;;36.50;38.50;;;;;;6339455;22;19930;-80
2022/06/24 12:25:57;;;;;;;;;;;36.30;37.20;;;;;;6312279;22;19906;-80
2022/06/24 12:28:23;;;;;;;;;;;36.10;37.10;;;;;;6339702;22;19973;-81
2022/06/24 12:31:00;;;;;;;;;;;36.30;37.10;;;;;;6312357;22;19923;-80
2022/06/24 12:33:26;;;;;;;;;;;36.30;36.90;;;;;;6339692;22;19937;-80
2022/06/24 12:36:04;;;;;;;;;;;36.00;37.20;;;;;;6339842;22;19922;-80
2022/06/24 12:38:29;;;;;;;;;;;35.70;38.10;;;;;;6339405;22;19969;-79
2022/06/24 12:41:08;;;;;;;;;;;35.50;39.30;;;;;;6339535;22;19938;-80
2022/06/24 12:43:33;;;;;;;;;;;35.40;44.30;;;;;;6339695;22;20301;-80
2022/06/24 12:46:02;;;;;;;;;;;35.30;46.50;;;;;;6340099;22;19902;-80
2022/06/24 12:51:12;;;;;;;;;;;35.00;40.50;;;;;;6338683;22;20362;-80
2022/06/24 12:53:38;;;;;;;;;;;34.90;43.60;;;;;;6339171;22;19898;-80
2022/06/24 12:56:03;;;;;;;;;;;34.50;48.20;;;;;;6339913;22;19906;-79
2022/06/24 12:58:29;;;;;;;;;;;34.30;48.80;;;;;;6338512;22;19899;-79
2022/06/24 13:00:55;;;;;;;;;;;34.20;51.80;;;;;;6339228;22;19993;-79
2022/06/24 13:03:20;;;;;;;;;;;34.20;52.60;;;;;;6339737;22;19905;-79
2022/06/24 13:05:47;;;;;;;;;;;34.20;52.00;;;;;;6339300;22;19903;-79
2022/06/24 13:08:12;;;;;;;;;;;34.20;42.40;;;;;;6339436;22;19899;-78
2022/06/24 13:10:38;;;;;;;;;;;34.20;43.40;;;;;;6339372;22;20316;-79
2022/06/24 13:13:04;;;;;;;;;;;34.20;47.20;;;;;;6339590;22;20317;-79
2022/06/24 13:15:29;;;;;;;;;;;34.10;51.00;;;;;;6339822;22;19981;-78
2022/06/24 13:17:55;;;;;;;;;;;34.00;51.40;;;;;;6339319;22;20328;-79
2022/06/24 13:20:20;;;;;;;;;;;33.80;52.00;;;;;;6339358;22;19906;-79
2022/06/24 13:22:46;;;;;;;;;;;33.70;51.20;;;;;;6339434;22;19930;-79
2022/06/24 13:25:12;;;;;;;;;;;33.60;51.90;;;;;;6339857;22;19898;-78
2022/06/24 13:27:38;;;;;;;;;;;33.40;51.20;;;;;;6311228;22;19902;-78
2022/06/24 13:30:05;;;;;;;;;;;33.30;51.50;;;;;;6338544;22;19948;-79
2022/06/24 13:32:30;;;;;;;;;;;33.20;52.40;;;;;;6339148;22;20309;-78
2022/06/24 13:34:56;;;;;;;;;;;33.10;52.10;;;;;;6338535;22;19910;-79
2022/06/24 13:37:21;;;;;;;;;;;33.10;51.60;;;;;;6338838;22;20327;-79
2022/06/24 13:39:47;;;;;;;;;;;33.00;51.60;;;;;;6338220;22;19985;-79
2022/06/24 13:42:12;;;;;;;;;;;33.20;51.40;;;;;;6338328;22;20297;-79
2022/06/24 13:44:38;;;;;;;;;;;33.60;51.60;;;;;;6338720;22;19960;-79
2022/06/24 13:47:04;;;;;;;;;;;33.80;50.30;;;;;;6339054;22;19898;-79
2022/06/24 13:49:29;;;;;;;;;;;34.20;50.00;;;;;;6338430;22;19944;-79
2022/06/24 13:51:55;;;;;;;;;;;34.50;49.40;;;;;;6311125;22;19902;-79
2022/06/24 13:54:20;;;;;;;;;;;34.70;48.60;;;;;;6338651;22;19899;-78
2022/06/24 13:56:46;;;;;;;;;;;34.80;48.70;;;;;;6338751;22;20313;-79
2022/06/24 13:59:14;;;;;;;;;;;34.90;47.10;;;;;;6338545;22;20320;-79
2022/06/24 14:01:40;;;;;;;;;;;34.90;47.50;;;;;;6338609;22;19905;-79
2022/06/24 14:04:06;;;;;;;;;;;35.00;48.10;;;;;;6338711;22;19902;-79
2022/06/24 14:06:31;;;;;;;;;;;35.10;47.20;;;;;;6339078;22;19899;-79
2022/06/24 14:08:57;;;;;;;;;;;35.20;47.40;;;;;;6338566;22;19906;-78
2022/06/24 14:11:22;;;;;;;;;;;35.30;47.70;;;;;;6338402;22;19903;-80
2022/06/24 14:13:49;;;;;;;;;;;35.30;48.10;;;;;;6338684;22;20210;-79
2022/06/24 14:16:24;;;;;;;;;;;35.30;48.10;;;;;;6339008;22;20205;-80
2022/06/24 14:18:59;;;;;;;;;;;35.20;47.70;;;;;;6310575;22;19926;-78
2022/06/24 14:21:25;;;;;;;;;;;35.20;47.00;;;;;;6310708;22;19988;-78
2022/06/24 14:26:35;;;;;;;;;;;35.00;47.70;;;;;;6338746;22;19960;-79
2022/06/24 14:29:01;;;;;;;;;;;34.90;48.00;;;;;;6338373;22;19902;-78